createdAt,value
2018-08-16T00:00:55.298Z,17.44
2018-08-16T00:03:07.670Z,17.41
2018-08-16T00:05:19.961Z,17.42
2018-08-16T00:07:32.133Z,17.39
2018-08-16T00:09:44.401Z,17.30
2018-08-16T00:11:56.637Z,17.28
2018-08-16T00:14:08.836Z,17.24
2018-08-16T00:16:21.074Z,17.17
2018-08-16T00:18:33.285Z,17.12
2018-08-16T00:20:45.514Z,17.09
2018-08-16T00:22:57.714Z,17.09
2018-08-16T00:25:10.522Z,16.98
2018-08-16T00:27:22.740Z,16.85
2018-08-16T00:29:34.911Z,16.78
2018-08-16T00:31:47.194Z,16.73
2018-08-16T00:33:59.360Z,16.77
2018-08-16T00:36:11.561Z,16.81
2018-08-16T00:38:23.734Z,16.76
2018-08-16T00:40:35.928Z,16.79
2018-08-16T00:42:48.130Z,16.82
2018-08-16T00:45:00.367Z,16.85
2018-08-16T00:47:12.562Z,16.88
2018-08-16T00:49:24.741Z,16.91
2018-08-16T00:51:37.043Z,16.91
2018-08-16T00:53:49.224Z,16.87
2018-08-16T00:56:01.375Z,16.83
2018-08-16T00:58:13.598Z,16.78
2018-08-16T01:00:25.798Z,16.74
2018-08-16T01:02:38.014Z,16.78
2018-08-16T01:04:50.458Z,16.70
2018-08-16T01:07:02.776Z,16.60
2018-08-16T01:09:14.982Z,16.55
2018-08-16T01:11:27.151Z,16.60
2018-08-16T01:13:39.362Z,16.58
2018-08-16T01:15:51.534Z,16.53
2018-08-16T01:18:03.778Z,16.55
2018-08-16T01:20:16.109Z,16.53
2018-08-16T01:22:28.263Z,16.53
2018-08-16T01:24:40.437Z,16.52
2018-08-16T01:26:52.611Z,16.53
2018-08-16T01:29:04.910Z,16.55
2018-08-16T01:31:17.155Z,16.48
2018-08-16T01:33:29.523Z,16.48
2018-08-16T01:35:41.815Z,16.45
2018-08-16T01:37:53.925Z,16.39
2018-08-16T01:40:07.006Z,16.34
2018-08-16T01:42:19.260Z,16.35
2018-08-16T01:44:31.443Z,16.36
2018-08-16T01:49:00.274Z,16.27
2018-08-16T01:51:12.470Z,16.28
2018-08-16T01:53:24.677Z,16.26
2018-08-16T01:55:36.895Z,16.26
2018-08-16T01:57:49.068Z,16.28
2018-08-16T02:00:01.330Z,16.22
2018-08-16T02:02:13.535Z,16.15
2018-08-16T02:04:25.852Z,16.11
2018-08-16T02:06:38.268Z,16.04
2018-08-16T02:08:50.506Z,15.98
2018-08-16T02:11:02.729Z,15.88
2018-08-16T02:13:14.951Z,15.87
2018-08-16T02:15:27.160Z,15.88
2018-08-16T02:17:39.476Z,15.82
2018-08-16T02:19:51.695Z,15.87
2018-08-16T02:22:03.939Z,15.88
2018-08-16T02:24:16.215Z,15.86
2018-08-16T02:26:28.390Z,15.80
2018-08-16T02:28:40.598Z,15.84
2018-08-16T02:30:52.895Z,15.84
2018-08-16T02:33:05.147Z,15.81
2018-08-16T02:35:17.350Z,15.79
2018-08-16T02:37:29.604Z,15.81
2018-08-16T02:39:41.811Z,15.77
2018-08-16T02:41:54.026Z,15.72
2018-08-16T02:44:06.863Z,15.75
2018-08-16T02:46:19.091Z,15.69
2018-08-16T02:48:31.590Z,15.63
2018-08-16T02:50:43.831Z,15.62
2018-08-16T02:52:56.082Z,15.55
2018-08-16T02:55:08.293Z,15.60
2018-08-16T02:57:20.561Z,15.57
2018-08-16T02:59:32.794Z,15.58
2018-08-16T03:01:45.142Z,15.56
2018-08-16T03:03:57.354Z,15.58
2018-08-16T03:06:09.606Z,15.55
2018-08-16T03:08:21.855Z,15.48
2018-08-16T03:10:34.048Z,15.42
2018-08-16T03:12:46.359Z,15.37
2018-08-16T03:14:58.567Z,15.38
2018-08-16T03:17:10.818Z,15.36
2018-08-16T03:19:23.018Z,15.36
2018-08-16T03:21:35.271Z,15.33
2018-08-16T03:23:47.504Z,15.29
2018-08-16T03:25:59.719Z,15.28
2018-08-16T03:28:11.918Z,15.31
2018-08-16T03:30:24.122Z,15.36
2018-08-16T03:32:36.387Z,15.36
2018-08-16T03:34:48.588Z,15.33
2018-08-16T03:37:00.943Z,15.32
2018-08-16T03:39:13.151Z,15.28
2018-08-16T03:41:25.345Z,15.25
2018-08-16T03:43:37.554Z,15.22
2018-08-16T03:45:49.802Z,15.21
2018-08-16T03:48:02.096Z,15.15
2018-08-16T03:50:14.293Z,15.13
2018-08-16T03:52:26.478Z,15.15
2018-08-16T03:54:38.758Z,15.17
2018-08-16T03:56:50.978Z,15.16
2018-08-16T03:59:03.206Z,15.19
2018-08-16T04:01:15.552Z,15.22
2018-08-16T04:03:27.796Z,15.21
2018-08-16T04:05:40.112Z,15.14
2018-08-16T04:07:52.363Z,15.03
2018-08-16T04:10:04.815Z,15.01
2018-08-16T04:12:17.007Z,15.03
2018-08-16T04:14:29.226Z,15.01
2018-08-16T04:16:41.424Z,15.03
2018-08-16T04:18:53.622Z,15.11
2018-08-16T04:21:05.879Z,15.16
2018-08-16T04:23:18.102Z,15.20
2018-08-16T04:25:30.378Z,15.14
2018-08-16T04:27:42.608Z,15.08
2018-08-16T04:29:54.855Z,15.05
2018-08-16T04:32:07.094Z,15.11
2018-08-16T04:34:19.293Z,15.11
2018-08-16T04:36:31.514Z,15.13
2018-08-16T04:38:43.697Z,15.14
2018-08-16T04:40:57.347Z,15.22
2018-08-16T04:43:09.557Z,15.22
2018-08-16T04:45:21.826Z,15.21
2018-08-16T04:47:35.244Z,15.27
2018-08-16T04:49:47.459Z,15.27
2018-08-16T04:51:59.711Z,15.27
2018-08-16T04:54:11.898Z,15.34
2018-08-16T04:56:24.182Z,15.42
2018-08-16T04:58:37.078Z,15.46
2018-08-16T05:00:49.286Z,15.56
2018-08-16T05:03:01.531Z,15.62
2018-08-16T05:05:13.735Z,15.68
2018-08-16T05:07:26.042Z,15.76
2018-08-16T05:09:38.260Z,15.76
2018-08-16T05:11:51.986Z,15.79
2018-08-16T05:14:04.295Z,15.90
2018-08-16T05:16:17.101Z,16.03
2018-08-16T05:18:29.370Z,16.13
2018-08-16T05:20:41.574Z,16.26
2018-08-16T05:22:54.887Z,16.37
2018-08-16T05:25:07.173Z,16.44
2018-08-16T05:27:19.350Z,16.56
2018-08-16T05:29:31.555Z,16.67
2018-08-16T05:31:45.120Z,16.82
2018-08-16T05:33:57.924Z,16.96
2018-08-16T05:36:10.744Z,17.12
2018-08-16T05:38:22.966Z,17.28
2018-08-16T05:40:35.207Z,17.39
2018-08-16T05:42:47.443Z,17.54
2018-08-16T05:44:59.697Z,17.66
2018-08-16T05:47:11.899Z,17.73
2018-08-16T05:49:24.186Z,17.83
2018-08-16T05:51:37.093Z,17.91
2018-08-16T05:53:51.447Z,18.09
2018-08-16T05:56:03.711Z,18.31
2018-08-16T05:58:15.988Z,18.52
2018-08-16T06:00:28.191Z,18.73
2018-08-16T06:02:40.514Z,18.91
2018-08-16T06:04:52.731Z,19.03
2018-08-16T06:07:04.921Z,19.22
2018-08-16T06:09:18.764Z,19.42
2018-08-16T06:11:31.531Z,19.59
2018-08-16T06:13:44.518Z,19.76
2018-08-16T06:15:56.778Z,19.94
2018-08-16T06:18:09.203Z,20.10
2018-08-16T06:20:21.453Z,20.30
2018-08-16T06:22:33.714Z,20.52
2018-08-16T06:24:45.946Z,20.76
2018-08-16T06:26:58.180Z,20.97
2018-08-16T06:29:10.366Z,21.13
2018-08-16T06:31:22.622Z,21.33
2018-08-16T06:33:34.854Z,21.59
2018-08-16T06:35:47.122Z,21.88
2018-08-16T06:37:59.366Z,22.19
2018-08-16T06:40:14.411Z,22.42
2018-08-16T06:42:26.620Z,22.76
2018-08-16T06:44:38.839Z,23.10
2018-08-16T06:46:51.083Z,23.31
2018-08-16T06:49:03.342Z,23.45
2018-08-16T06:51:15.562Z,23.71
2018-08-16T06:53:28.335Z,24.00
2018-08-16T06:55:41.280Z,24.26
2018-08-16T06:57:53.510Z,24.46
2018-08-16T07:00:06.661Z,24.73
2018-08-16T07:02:18.865Z,24.95
2018-08-16T07:04:31.794Z,25.28
2018-08-16T07:06:44.062Z,25.45
2018-08-16T07:08:56.290Z,25.69
2018-08-16T07:11:08.598Z,25.98
2018-08-16T07:13:20.851Z,26.22
2018-08-16T07:15:33.099Z,26.40
2018-08-16T07:17:45.338Z,26.55
2018-08-16T07:19:57.544Z,26.59
2018-08-16T07:22:09.789Z,26.65
2018-08-16T07:24:21.980Z,26.82
2018-08-16T07:26:34.206Z,26.95
2018-08-16T07:28:46.431Z,26.93
2018-08-16T07:30:58.743Z,26.87
2018-08-16T07:33:11.001Z,27.04
2018-08-16T07:35:23.220Z,26.94
2018-08-16T07:37:35.484Z,27.02
2018-08-16T07:39:47.781Z,27.22
2018-08-16T07:42:00.032Z,27.42
2018-08-16T07:44:12.289Z,27.58
2018-08-16T07:46:24.545Z,27.77
2018-08-16T07:48:36.761Z,27.96
2018-08-16T07:50:49.001Z,28.02
2018-08-16T07:53:01.247Z,28.07
2018-08-16T07:55:13.469Z,28.13
2018-08-16T07:57:25.662Z,28.32
2018-08-16T07:59:37.907Z,28.32
2018-08-16T08:01:50.112Z,28.45
2018-08-16T08:04:02.680Z,28.38
2018-08-16T08:06:14.942Z,28.28
2018-08-16T08:08:27.256Z,28.37
2018-08-16T08:10:39.531Z,28.47
2018-08-16T08:12:51.786Z,28.74
2018-08-16T08:15:05.987Z,28.93
2018-08-16T08:17:18.212Z,29.07
2018-08-16T08:19:30.468Z,29.09
2018-08-16T08:21:42.727Z,29.00
2018-08-16T08:23:54.961Z,28.94
2018-08-16T08:26:07.355Z,28.93
2018-08-16T08:28:19.608Z,28.98
2018-08-16T08:30:31.843Z,29.02
2018-08-16T08:32:44.172Z,29.03
2018-08-16T08:34:56.430Z,29.07
2018-08-16T08:37:20.052Z,29.16
2018-08-16T08:39:32.435Z,29.26
2018-08-16T08:41:44.731Z,29.39
2018-08-16T08:44:19.392Z,29.65
2018-08-16T08:46:31.700Z,29.79
2018-08-16T08:48:43.898Z,29.83
2018-08-16T08:50:56.114Z,29.95
2018-08-16T08:53:19.754Z,30.03
2018-08-16T08:55:43.389Z,30.00
2018-08-16T08:58:07.038Z,30.02
2018-08-16T09:00:19.302Z,30.01
2018-08-16T09:02:31.608Z,29.91
2018-08-16T09:04:43.913Z,29.91
2018-08-16T09:06:56.228Z,29.86
2018-08-16T09:09:08.942Z,29.94
2018-08-16T09:11:32.528Z,30.13
2018-08-16T09:13:58.595Z,30.24
2018-08-16T09:16:19.383Z,30.42
2018-08-16T09:18:32.150Z,30.35
2018-08-16T09:20:46.588Z,30.38
2018-08-16T09:22:58.836Z,30.45
2018-08-16T09:25:11.077Z,30.47
2018-08-16T09:27:23.348Z,30.36
2018-08-16T09:29:54.392Z,30.42
2018-08-16T09:32:17.988Z,30.65
2018-08-16T09:34:30.215Z,30.72
2018-08-16T09:36:42.442Z,30.76
2018-08-16T09:38:55.382Z,30.96
2018-08-16T09:41:07.619Z,30.99
2018-08-16T09:43:19.880Z,31.03
2018-08-16T09:46:47.288Z,31.13
2018-08-16T09:48:59.514Z,30.96
2018-08-16T09:51:11.781Z,31.13
2018-08-16T09:53:24.043Z,31.27
2018-08-16T09:55:36.339Z,31.43
2018-08-16T09:57:48.644Z,31.50
2018-08-16T10:00:00.910Z,31.51
2018-08-16T10:02:14.800Z,31.47
2018-08-16T10:04:27.253Z,31.40
2018-08-16T10:06:40.423Z,31.56
2018-08-16T10:08:52.667Z,31.62
2018-08-16T10:11:04.880Z,31.62
2018-08-16T10:13:17.167Z,31.75
2018-08-16T10:15:29.463Z,31.82
2018-08-16T10:17:41.659Z,32.03
2018-08-16T10:19:53.940Z,32.19
2018-08-16T10:22:06.268Z,32.21
2018-08-16T10:24:18.586Z,32.26
2018-08-16T10:26:30.835Z,32.12
2018-08-16T10:28:43.642Z,31.92
2018-08-16T10:30:55.870Z,31.91
2018-08-16T10:33:08.133Z,31.89
2018-08-16T10:35:20.423Z,32.06
2018-08-16T10:37:32.702Z,32.15
2018-08-16T10:39:44.931Z,32.09
2018-08-16T10:41:57.150Z,32.06
2018-08-16T10:44:09.623Z,31.94
2018-08-16T10:46:21.963Z,32.10
2018-08-16T10:48:34.209Z,32.21
2018-08-16T10:50:46.474Z,32.11
2018-08-16T10:52:58.674Z,32.18
2018-08-16T10:55:10.970Z,32.22
2018-08-16T10:57:23.188Z,32.23
2018-08-16T10:59:35.454Z,32.14
2018-08-16T11:01:47.724Z,32.06
2018-08-16T11:04:00.027Z,32.22
2018-08-16T11:06:12.275Z,32.02
2018-08-16T11:08:25.020Z,32.15
2018-08-16T11:10:37.290Z,32.33
2018-08-16T11:12:49.508Z,32.38
2018-08-16T11:15:01.696Z,32.44
2018-08-16T11:17:13.974Z,32.43
2018-08-16T11:19:26.239Z,32.39
2018-08-16T11:21:38.494Z,32.43
2018-08-16T11:23:50.738Z,32.31
2018-08-16T11:26:03.023Z,32.24
2018-08-16T11:28:15.259Z,32.22
2018-08-16T11:30:27.499Z,32.25
2018-08-16T11:32:39.746Z,32.24
2018-08-16T11:34:52.029Z,32.14
2018-08-16T11:37:04.357Z,32.09
2018-08-16T11:39:16.583Z,32.21
2018-08-16T11:41:28.947Z,32.21
2018-08-16T11:43:41.147Z,32.20
2018-08-16T11:45:54.215Z,32.07
2018-08-16T11:48:06.534Z,32.10
2018-08-16T11:50:18.749Z,32.07
2018-08-16T11:52:30.997Z,32.15
2018-08-16T11:54:43.570Z,32.21
2018-08-16T11:56:55.830Z,32.24
2018-08-16T11:59:08.074Z,32.25
2018-08-16T12:01:20.326Z,32.21
2018-08-16T12:03:32.571Z,32.19
2018-08-16T12:05:44.762Z,31.92
2018-08-16T12:07:57.762Z,31.96
2018-08-16T12:10:09.979Z,32.04
2018-08-16T12:12:22.256Z,32.20
2018-08-16T12:14:34.501Z,32.26
2018-08-16T12:16:46.743Z,32.09
2018-08-16T12:18:58.990Z,31.96
2018-08-16T12:21:11.253Z,31.91
2018-08-16T12:23:23.463Z,31.81
2018-08-16T12:25:35.732Z,31.66
2018-08-16T12:27:47.930Z,31.66
2018-08-16T12:30:00.160Z,31.71
2018-08-16T12:32:12.387Z,31.70
2018-08-16T12:34:24.619Z,31.72
2018-08-16T12:36:36.858Z,31.76
2018-08-16T12:38:49.069Z,31.79
2018-08-16T12:41:01.824Z,31.72
2018-08-16T12:43:13.963Z,31.69
2018-08-16T12:45:26.193Z,31.61
2018-08-16T12:47:38.461Z,31.60
2018-08-16T12:49:50.691Z,31.59
2018-08-16T12:52:02.923Z,31.59
2018-08-16T12:54:15.175Z,31.65
2018-08-16T12:56:27.426Z,31.74
2018-08-16T12:58:39.661Z,31.69
2018-08-16T13:00:51.926Z,31.61
2018-08-16T13:03:04.166Z,31.56
2018-08-16T13:05:16.858Z,31.52
2018-08-16T13:07:29.116Z,31.43
2018-08-16T13:09:41.317Z,31.38
2018-08-16T13:11:53.578Z,31.36
2018-08-16T13:14:05.798Z,31.37
2018-08-16T13:16:18.059Z,31.38
2018-08-16T13:18:30.367Z,31.36
2018-08-16T13:20:42.624Z,31.32
2018-08-16T13:22:54.875Z,31.30
2018-08-16T13:25:07.856Z,31.16
2018-08-16T13:27:20.127Z,31.11
2018-08-16T13:29:32.366Z,31.15
2018-08-16T13:31:44.611Z,31.16
2018-08-16T13:33:56.883Z,31.12
2018-08-16T13:36:09.104Z,31.04
2018-08-16T13:38:21.340Z,30.97
2018-08-16T13:40:33.537Z,30.96
2018-08-16T13:42:45.789Z,31.00
2018-08-16T13:44:57.995Z,30.95
2018-08-16T13:47:10.187Z,30.82
2018-08-16T13:49:22.452Z,30.79
2018-08-16T13:51:34.793Z,30.76
2018-08-16T13:53:47.046Z,30.80
2018-08-16T13:55:59.315Z,30.83
2018-08-16T13:58:11.547Z,30.79
2018-08-16T14:00:23.829Z,30.75
2018-08-16T14:02:36.107Z,30.82
2018-08-16T14:04:48.315Z,30.77
2018-08-16T14:07:00.574Z,30.73
2018-08-16T14:09:12.795Z,30.71
2018-08-16T14:11:25.003Z,30.74
2018-08-16T14:13:37.214Z,30.80
2018-08-16T14:15:49.534Z,30.82
2018-08-16T14:18:01.792Z,30.88
2018-08-16T14:20:14.051Z,30.94
2018-08-16T14:22:26.300Z,31.03
2018-08-16T14:24:38.568Z,31.13
2018-08-16T14:26:50.811Z,31.11
2018-08-16T14:29:03.127Z,31.08
2018-08-16T14:31:15.385Z,31.07
2018-08-16T14:33:27.604Z,31.08
2018-08-16T14:35:39.854Z,31.12
2018-08-16T14:37:52.043Z,31.09
2018-08-16T14:40:04.903Z,31.13
2018-08-16T14:42:17.163Z,31.14
2018-08-16T14:44:29.423Z,31.06
2018-08-16T14:46:41.734Z,31.09
2018-08-16T14:48:53.931Z,31.10
2018-08-16T14:51:06.128Z,31.10
2018-08-16T14:53:18.373Z,31.18
2018-08-16T14:55:30.577Z,31.16
2018-08-16T14:57:42.900Z,31.12
2018-08-16T14:59:55.118Z,31.09
2018-08-16T15:02:07.358Z,31.10
2018-08-16T15:04:19.596Z,30.98
2018-08-16T15:06:31.837Z,30.88
2018-08-16T15:08:44.078Z,30.72
2018-08-16T15:10:56.355Z,30.64
2018-08-16T15:13:08.560Z,30.60
2018-08-16T15:15:20.747Z,30.56
2018-08-16T15:17:32.980Z,30.56
2018-08-16T15:19:45.323Z,30.56
2018-08-16T15:21:57.631Z,30.56
2018-08-16T15:24:09.867Z,30.56
2018-08-16T15:26:22.054Z,30.57
2018-08-16T15:28:34.320Z,30.57
2018-08-16T15:30:46.615Z,30.55
2018-08-16T15:32:58.859Z,30.53
2018-08-16T15:35:11.107Z,30.43
2018-08-16T15:37:23.313Z,30.33
2018-08-16T15:39:35.608Z,30.34
2018-08-16T15:41:47.788Z,30.30
2018-08-16T15:44:00.059Z,30.27
2018-08-16T15:46:12.311Z,30.27
2018-08-16T15:48:24.488Z,30.25
2018-08-16T15:50:36.692Z,30.23
2018-08-16T15:52:48.910Z,30.20
2018-08-16T15:55:01.143Z,30.14
2018-08-16T15:57:13.346Z,30.11
2018-08-16T15:59:25.557Z,30.04
2018-08-16T16:01:37.795Z,29.95
2018-08-16T16:03:50.023Z,29.93
2018-08-16T16:06:02.325Z,29.94
2018-08-16T16:08:14.511Z,29.96
2018-08-16T16:10:26.724Z,29.99
2018-08-16T16:12:38.967Z,29.95
2018-08-16T16:14:51.138Z,29.93
2018-08-16T16:17:03.856Z,29.93
2018-08-16T16:19:16.067Z,29.92
2018-08-16T16:21:28.290Z,29.90
2018-08-16T16:23:40.509Z,29.89
2018-08-16T16:25:52.711Z,29.85
2018-08-16T16:28:05.262Z,29.80
2018-08-16T16:30:17.460Z,29.81
2018-08-16T16:32:29.700Z,29.83
2018-08-16T16:34:41.915Z,29.86
2018-08-16T16:36:54.113Z,29.82
2018-08-16T16:39:09.207Z,29.80
2018-08-16T16:41:21.431Z,29.83
2018-08-16T16:43:33.658Z,29.86
2018-08-16T16:45:45.913Z,29.88
2018-08-16T16:47:58.123Z,29.88
2018-08-16T16:50:10.373Z,29.89
2018-08-16T16:52:22.567Z,29.89
2018-08-16T16:54:34.816Z,29.88
2018-08-16T16:56:47.075Z,29.81
2018-08-16T16:58:59.306Z,29.79
2018-08-16T17:01:12.037Z,29.75
2018-08-16T17:03:24.273Z,29.74
2018-08-16T17:05:36.547Z,29.75
2018-08-16T17:07:48.744Z,29.77
2018-08-16T17:10:01.058Z,29.76
2018-08-16T17:12:13.294Z,29.75
2018-08-16T17:14:25.508Z,29.74
2018-08-16T17:16:37.707Z,29.73
2018-08-16T17:18:49.926Z,29.74
2018-08-16T17:21:02.172Z,29.70
2018-08-16T17:23:14.362Z,29.65
2018-08-16T17:25:26.590Z,29.64
2018-08-16T17:27:38.791Z,29.62
2018-08-16T17:29:50.990Z,29.58
2018-08-16T17:32:03.341Z,29.55
2018-08-16T17:34:15.538Z,29.52
2018-08-16T17:36:27.835Z,29.50
2018-08-16T17:38:40.030Z,29.49
2018-08-16T17:40:52.214Z,29.43
2018-08-16T17:43:04.847Z,29.43
2018-08-16T17:45:17.087Z,29.37
2018-08-16T17:47:29.326Z,29.31
2018-08-16T17:49:41.510Z,29.24
2018-08-16T17:51:53.773Z,29.15
2018-08-16T17:54:06.123Z,29.07
2018-08-16T17:56:18.337Z,29.03
2018-08-16T17:58:30.667Z,28.93
2018-08-16T18:00:43.840Z,28.83
2018-08-16T18:02:56.106Z,28.71
2018-08-16T18:05:08.299Z,28.65
2018-08-16T18:07:20.528Z,28.45
2018-08-16T18:09:32.813Z,28.21
2018-08-16T18:11:45.101Z,28.06
2018-08-16T18:13:57.480Z,27.92
2018-08-16T18:16:09.702Z,27.73
2018-08-16T18:18:21.909Z,27.60
2018-08-16T18:20:34.178Z,27.41
2018-08-16T18:22:46.400Z,27.30
2018-08-16T18:24:58.642Z,27.09
2018-08-16T18:27:10.845Z,26.95
2018-08-16T18:29:23.115Z,26.86
2018-08-16T18:31:35.349Z,26.79
2018-08-16T18:33:48.578Z,26.72
2018-08-16T18:36:00.868Z,26.68
2018-08-16T18:38:13.063Z,26.69
2018-08-16T18:40:25.303Z,26.65
2018-08-16T18:42:37.606Z,26.61
2018-08-16T18:44:49.859Z,26.57
2018-08-16T18:47:01.987Z,26.46
2018-08-16T18:49:14.180Z,26.25
2018-08-16T18:51:26.871Z,26.01
2018-08-16T18:53:39.096Z,25.91
2018-08-16T18:55:52.040Z,25.86
2018-08-16T18:58:04.322Z,25.82
2018-08-16T19:00:16.575Z,25.70
2018-08-16T19:02:28.786Z,25.67
2018-08-16T19:04:41.058Z,25.62
2018-08-16T19:06:53.334Z,25.55
2018-08-16T19:09:06.255Z,25.42
2018-08-16T19:11:18.583Z,25.37
2018-08-16T19:13:30.766Z,25.30
2018-08-16T19:15:43.048Z,25.28
2018-08-16T19:17:55.286Z,25.25
2018-08-16T19:20:07.670Z,25.21
2018-08-16T19:22:19.915Z,25.10
2018-08-16T19:24:32.130Z,24.96
2018-08-16T19:26:45.688Z,24.85
2018-08-16T19:28:57.922Z,24.77
2018-08-16T19:31:10.115Z,24.72
2018-08-16T19:33:22.335Z,24.70
2018-08-16T19:35:34.821Z,24.66
2018-08-16T19:37:47.066Z,24.63
2018-08-16T19:39:59.239Z,24.51
2018-08-16T19:42:11.459Z,24.46
2018-08-16T19:44:23.626Z,24.40
2018-08-16T19:46:35.859Z,24.31
2018-08-16T19:48:48.094Z,24.24
2018-08-16T19:51:00.341Z,24.22
2018-08-16T19:53:12.603Z,24.14
2018-08-16T19:55:24.890Z,23.93
2018-08-16T19:57:37.399Z,23.86
2018-08-16T19:59:49.642Z,23.81
2018-08-16T20:02:01.883Z,23.81
2018-08-16T20:04:14.150Z,23.81
2018-08-16T20:06:26.379Z,23.76
2018-08-16T20:08:38.639Z,23.69
2018-08-16T20:10:51.033Z,23.64
2018-08-16T20:13:03.268Z,23.61
2018-08-16T20:15:15.475Z,23.60
2018-08-16T20:17:27.699Z,23.60
2018-08-16T20:19:39.991Z,23.60
2018-08-16T20:21:52.247Z,23.58
2018-08-16T20:24:04.463Z,23.54
2018-08-16T20:26:16.702Z,23.46
2018-08-16T20:28:28.946Z,23.38
2018-08-16T20:30:41.143Z,23.24
2018-08-16T20:32:53.329Z,23.22
2018-08-16T20:35:05.571Z,23.18
2018-08-16T20:37:17.785Z,23.14
2018-08-16T20:39:30.047Z,23.12
2018-08-16T20:41:42.327Z,23.08
2018-08-16T20:43:54.528Z,23.05
2018-08-16T20:46:06.755Z,23.02
2018-08-16T20:48:20.841Z,22.99
2018-08-16T20:50:33.040Z,22.97
2018-08-16T20:52:45.274Z,22.97
2018-08-16T20:54:57.495Z,22.98
2018-08-16T20:57:09.718Z,22.93
2018-08-16T20:59:21.931Z,22.89
2018-08-16T21:01:34.174Z,22.87
2018-08-16T21:03:46.440Z,22.85
2018-08-16T21:05:58.730Z,22.82
2018-08-16T21:08:10.929Z,22.77
2018-08-16T21:10:23.150Z,22.74
2018-08-16T21:12:35.371Z,22.70
2018-08-16T21:14:47.618Z,22.73
2018-08-16T21:16:59.821Z,22.75
2018-08-16T21:19:12.022Z,22.74
2018-08-16T21:21:24.294Z,22.69
2018-08-16T21:23:36.495Z,22.67
2018-08-16T21:25:48.681Z,22.64
2018-08-16T21:28:00.911Z,22.64
2018-08-16T21:30:13.157Z,22.61
2018-08-16T21:32:25.394Z,22.60
2018-08-16T21:34:37.759Z,22.62
2018-08-16T21:36:49.841Z,22.61
2018-08-16T21:39:02.129Z,22.61
2018-08-16T21:41:14.474Z,22.59
2018-08-16T21:43:26.674Z,22.59
2018-08-16T21:45:38.884Z,22.59
2018-08-16T21:47:51.159Z,22.57
2018-08-16T21:50:03.975Z,22.61
2018-08-16T21:52:16.177Z,22.61
2018-08-16T21:54:28.387Z,22.60
2018-08-16T21:56:40.658Z,22.61
2018-08-16T21:58:52.910Z,22.61
2018-08-16T22:01:06.176Z,22.58
2018-08-16T22:03:19.522Z,22.58
2018-08-16T22:05:41.987Z,22.60
2018-08-16T22:08:09.941Z,22.58
2018-08-16T22:10:22.183Z,22.53
2018-08-16T22:12:34.358Z,22.54
2018-08-16T22:14:46.561Z,22.54
2018-08-16T22:16:58.758Z,22.51
2018-08-16T22:19:10.958Z,22.54
2018-08-16T22:21:23.207Z,22.53
2018-08-16T22:23:35.482Z,22.48
2018-08-16T22:25:47.679Z,22.45
2018-08-16T22:27:59.969Z,22.45
2018-08-16T22:30:12.254Z,22.43
2018-08-16T22:32:24.474Z,22.39
2018-08-16T22:34:36.657Z,22.30
2018-08-16T22:36:48.906Z,22.26
2018-08-16T22:39:01.096Z,22.30
2018-08-16T22:41:13.343Z,22.32
2018-08-16T22:43:25.597Z,22.31
2018-08-16T22:45:37.824Z,22.31
2018-08-16T22:47:50.031Z,22.25
2018-08-16T22:50:02.288Z,22.23
2018-08-16T22:52:14.520Z,22.19
2018-08-16T22:54:26.757Z,22.18
2018-08-16T22:56:38.955Z,22.16
2018-08-16T22:58:51.186Z,22.15
2018-08-16T23:01:03.483Z,22.14
2018-08-16T23:03:15.787Z,22.13
2018-08-16T23:05:28.034Z,22.15
2018-08-16T23:07:40.231Z,22.14
2018-08-16T23:09:52.406Z,22.18
2018-08-16T23:12:04.665Z,22.12
2018-08-16T23:14:16.863Z,22.10
2018-08-16T23:16:29.075Z,22.09
2018-08-16T23:18:41.252Z,22.07
2018-08-16T23:20:53.461Z,22.08
2018-08-16T23:23:06.071Z,22.06
2018-08-16T23:25:18.287Z,22.02
2018-08-16T23:27:30.494Z,21.98
2018-08-16T23:29:42.725Z,21.95
2018-08-16T23:31:54.907Z,21.86
2018-08-16T23:34:07.166Z,21.74
2018-08-16T23:36:19.410Z,21.70
2018-08-16T23:38:31.602Z,21.60
2018-08-16T23:40:43.814Z,21.53
2018-08-16T23:42:56.017Z,21.42
2018-08-16T23:45:08.935Z,21.38
2018-08-16T23:47:22.552Z,21.31
2018-08-16T23:49:34.711Z,21.24
2018-08-16T23:51:46.914Z,21.18
2018-08-16T23:53:59.126Z,21.18
2018-08-16T23:56:11.332Z,21.15
2018-08-16T23:58:23.535Z,21.11
